D/T METAR WX W/DIR W/SPE G/SPE TEMP DEWP
8/12/19 00:20 EGPL 080020Z AUTO 27028G39KT 9999 FEW021/// SCT039/// BKN049/// 09/06 Q0978 W (270°) 32.2mph 44.9mph 9°C 6°C
7/12/19 23:50 EGPL 072350Z AUTO 26030G41KT 9999 FEW022/// SCT042/// 09/06 Q0977 W (260°) 34.5mph 47.2mph 9°C 6°C
7/12/19 23:20 EGPL 072320Z AUTO 25031KT 8000 -RA FEW005/// SCT013/// BKN042/// 09/07 Q0977 RERA -RA WSW (250°) 35.7mph 9°C 7°C
7/12/19 22:50 EGPL 072250Z AUTO 26023KT 2400 +RA BKN005/// BKN045/// 10/09 Q0977 +RA W (260°) 26.5mph 10°C 9°C
7/12/19 22:20 EGPL 072220Z AUTO 24026KT 4000 RA BKN004/// OVC039/// 10/10 Q0976 RERA RA WSW (240°) 29.9mph 10°C 10°C
7/12/19 21:50 EGPL 072150Z AUTO 22022KT 5000 -RA OVC003/// 11/10 Q0977 RERA -RA SW (220°) 25.3mph 11°C 10°C
7/12/19 21:20 EGPL 072120Z AUTO 22021KT 3700 RA OVC003/// 11/10 Q0978 RA SW (220°) 24.2mph 11°C 10°C
7/12/19 20:50 EGPL 072050Z AUTO 22022KT 4400 RA OVC004/// 11/10 Q0978 RERA RA SW (220°) 25.3mph 11°C 10°C
7/12/19 20:20 EGPL 072020Z AUTO 21025KT 4600 RA OVC004/// 11/10 Q0979 RA SSW (210°) 28.8mph 11°C 10°C
7/12/19 19:50 EGPL 071950Z AUTO 21028KT 4400 RA OVC004/// 11/10 Q0980 RA SSW (210°) 32.2mph 11°C 10°C
7/12/19 19:20 EGPL 071920Z AUTO 21030KT 4700 RA OVC005/// 11/10 Q0981 RA SSW (210°) 34.5mph 11°C 10°C
7/12/19 18:50 EGPL 071850Z 21029KT 4400 RA OVC004 11/10 Q0982 RERA RA SSW (210°) 33.4mph 11°C 10°C
7/12/19 17:50 EGPL 071750Z 21027KT 6000 -RA OVC004 11/10 Q0984 RERA -RA SSW (210°) 31.1mph 11°C 10°C
7/12/19 17:20 EGPL 071720Z AUTO 20026G36KT 4100 -RA OVC004/// 11/10 Q0985 -RA SSW (200°) 29.9mph 41.4mph 11°C 10°C
7/12/19 16:50 EGPL 071650Z AUTO 21027KT 7000 -RA OVC004/// 11/10 Q0986 -RA SSW (210°) 31.1mph 11°C 10°C
7/12/19 16:20 EGPL 071620Z AUTO 21027KT 7000 OVC004/// 11/10 Q0987 SSW (210°) 31.1mph 11°C 10°C
7/12/19 15:50 EGPL 071550Z AUTO 22025KT 6000 OVC003/// 11/10 Q0988 RERA SW (220°) 28.8mph 11°C 10°C
7/12/19 15:20 EGPL 071520Z AUTO 22020KT 2400 +RA OVC003/// 11/10 Q0989 +RA SW (220°) 23.0mph 11°C 10°C
7/12/19 14:50 EGPL 071450Z AUTO 21020KT 4300 RA OVC003/// 11/10 Q0990 RERA RA SSW (210°) 23.0mph 11°C 10°C
7/12/19 14:20 EGPL 071420Z AUTO 21024KT 2000 RA OVC003/// 10/10 Q0991 RERA RA SSW (210°) 27.6mph 10°C 10°C
7/12/19 13:50 EGPL 071350Z AUTO 21023KT 7000 -RA OVC004/// 11/10 Q0991 RERA -RA SSW (210°) 26.5mph 11°C 10°C
7/12/19 13:20 EGPL 071320Z AUTO 20022KT 5000 -RA OVC004/// 10/10 Q0992 -RA SSW (200°) 25.3mph 10°C 10°C
7/12/19 12:50 EGPL 071250Z AUTO 20024KT 9999 -RA OVC004/// 10/10 Q0993 RERA -RA SSW (200°) 27.6mph 10°C 10°C
7/12/19 12:20 EGPL 071220Z 19022KT 9999 -RADZ FEW003 BKN006 10/10 Q0993 -RA -DZ S (190°) 25.3mph 10°C 10°C
7/12/19 11:50 EGPL 071150Z 19019KT 9999 -RADZ FEW003 BKN006 10/09 Q0995 -RA -DZ S (190°) 21.9mph 10°C 9°C
7/12/19 11:20 EGPL 071120Z 18016KT 9999 -RADZ FEW003 BKN006 10/09 Q0996 -RA -DZ S (180°) 18.4mph 10°C 9°C
7/12/19 10:50 EGPL 071050Z 18016KT 9000 -RADZ BR BKN003 OVC004 09/09 Q0997 -RA -DZ BR S (180°) 18.4mph 9°C 9°C
7/12/19 10:20 EGPL 071020Z 19016KT 2500 -RADZ BKN003 OVC004 09/09 Q0997 -RA -DZ S (190°) 18.4mph 9°C 9°C
7/12/19 09:50 EGPL 070950Z AUTO 20013KT 9999 BKN005/// BKN009/// OVC024/// 09/08 Q0998 SSW (200°) 15.0mph 9°C 8°C
7/12/19 09:20 EGPL 070920Z AUTO 20011KT 9999 BKN005/// BKN010/// BKN017/// 09/08 Q0999 REDZ SSW (200°) 12.7mph 9°C 8°C
7/12/19 08:50 EGPL 070850Z 20009KT 8000 VCSH FEW005 SCT008 BKN032 09/08 Q1000 VCSH SSW (200°) 10.4mph 9°C 8°C
7/12/19 08:20 EGPL 070820Z 21010KT 9999 FEW006 SCT010 BKN020 08/08 Q1000 SSW (210°) 11.5mph 8°C 8°C
7/12/19 07:50 EGPL 070750Z 21009KT 9999 SCT006 SCT008 BKN010 08/08 Q1000 SSW (210°) 10.4mph 8°C 8°C
7/12/19 07:20 EGPL 070720Z AUTO 18006KT 9999 FEW006/// SCT008/// BKN010/// 08/07 Q1001 S (180°) 6.9mph 8°C 7°C
7/12/19 06:50 EGPL 070650Z AUTO 19006KT 9999 FEW011/// SCT021/// 08/07 Q1001 S (190°) 6.9mph 8°C 7°C
7/12/19 06:20 EGPL 070620Z AUTO 19004KT 9999 BKN008/// OVC023/// 07/07 Q1001 S (190°) 4.6mph 7°C 7°C
7/12/19 05:50 EGPL 070550Z AUTO 13003KT 9999 BKN002/// OVC019/// 07/07 Q1001 SE (130°) 3.5mph 7°C 7°C
7/12/19 05:20 EGPL 070520Z AUTO 00000KT 2100 -DZ OVC004/// 07/07 Q1002 REDZ -DZ N (0°) 7°C 7°C
7/12/19 04:20 EGPL 070420Z AUTO 26007KT 2500 -DZ BKN005/// BKN008/// OVC045/// 07/06 Q1002 -DZ W (260°) 8.1mph 7°C 6°C
7/12/19 03:50 EGPL 070350Z AUTO 26008KT 9999 SCT018/// BKN023/// OVC048/// 07/06 Q1002 W (260°) 9.2mph 7°C 6°C
7/12/19 03:20 EGPL 070320Z AUTO 25011KT 9999 FEW007/// SCT012/// BKN020/// 08/05 Q1002 WSW (250°) 12.7mph 8°C 5°C
7/12/19 02:50 EGPL 070250Z AUTO 26008KT 9999 FEW020/// SCT025/// OVC033/// 07/05 Q1002 W (260°) 9.2mph 7°C 5°C
7/12/19 01:50 EGPL 070150Z AUTO 27009KT 9999 FEW021/// SCT029/// BKN042/// 07/05 Q1002 W (270°) 10.4mph 7°C 5°C
7/12/19 00:50 EGPL 070050Z AUTO 28008KT 9999 FEW019/// SCT048/// 07/05 Q1001 W (280°) 9.2mph 7°C 5°C
7/12/19 00:20 EGPL 070020Z AUTO 29009KT 9999 SCT020/// BKN025/// BKN029/// 08/06 Q1001 WNW (290°) 10.4mph 8°C 6°C
6/12/19 23:50 EGPL 062350Z AUTO 29011KT 9999 FEW020/// SCT031/// 08/05 Q1001 WNW (290°) 12.7mph 8°C 5°C
6/12/19 23:20 EGPL 062320Z AUTO 28010KT 9999 FEW007/// SCT025/// BKN031/// 07/06 Q1001 W (280°) 11.5mph 7°C 6°C
6/12/19 22:50 EGPL 062250Z AUTO 30011KT 9999 -RA SCT005/// BKN013/// 08/06 Q1001 RERA -RA WNW (300°) 12.7mph 8°C 6°C